Ames, South Dakota
Current Conditions -  °F | °C
As of 6:53 AM on Friday 24 Oct 2014 (Local Time) from KPIR Reporting Station
Clear Clear  
Wind Chill:   Ceiling: Unl
Heat Index:   Visibility: 10mi
Dew Point:   Wind: 6mph
Humidity: 79%   Direction: 250°WSW
Pressure: 29.86"   Gusts: NA
Location:  44.3693°N, 100.04°W
Report Text: KPIR 241153Z AUTO 25005KT 10SM CLR 04/01 A2986 RMK AO2 SLP117 T00440011 10078 20033 53002
Loading
Personal Weather Stations






























Interactive Weather Map
Tropical Storm Tracking
New forecast layout! Learn more

10-Day Weather Forecast

Advertisements
Track Severe Weather on mobile